createdAt,value
2023-01-22T00:00:38.862Z,96250.69
2023-01-22T00:03:05.913Z,96244.91
2023-01-22T00:05:32.940Z,96244.13
2023-01-22T00:07:59.918Z,96244.03
2023-01-22T00:10:26.800Z,96253.13
2023-01-22T00:12:53.792Z,96248.13
2023-01-22T00:15:20.688Z,96252.06
2023-01-22T00:17:47.628Z,96252.75
2023-01-22T00:20:14.838Z,96252.13
2023-01-22T00:22:41.803Z,96249.72
2023-01-22T00:25:11.541Z,96246.34
2023-01-22T00:27:39.271Z,96250.53
2023-01-22T00:30:07.094Z,96246.78
2023-01-22T00:32:34.090Z,96255.41
2023-01-22T00:35:01.974Z,96267.78
2023-01-22T00:37:28.930Z,96271.50
2023-01-22T00:39:55.970Z,96265.38
2023-01-22T00:42:22.908Z,96270.72
2023-01-22T00:44:49.890Z,96259.25
2023-01-22T00:47:16.804Z,96269.19
2023-01-22T00:49:43.791Z,96271.00
2023-01-22T00:52:10.719Z,96271.97
2023-01-22T00:54:37.893Z,96285.22
2023-01-22T00:57:04.958Z,96279.41
2023-01-22T00:59:32.820Z,96282.19
2023-01-22T01:01:59.919Z,96277.22
2023-01-22T01:04:26.980Z,96282.00
2023-01-22T01:06:55.517Z,96279.72
2023-01-22T01:09:22.541Z,96274.56
2023-01-22T01:11:49.837Z,96276.41
2023-01-22T01:14:17.610Z,96283.34
2023-01-22T01:16:44.680Z,96275.78
2023-01-22T01:19:12.496Z,96273.03
2023-01-22T01:21:39.847Z,96278.03
2023-01-22T01:24:06.949Z,96282.19
2023-01-22T01:26:35.517Z,96287.78
2023-01-22T01:29:10.149Z,96291.81
2023-01-22T01:31:38.157Z,96288.44
2023-01-22T01:34:05.737Z,96291.97
2023-01-22T01:36:48.430Z,96300.69
2023-01-22T01:39:16.941Z,96304.06
2023-01-22T01:41:44.260Z,96300.06
2023-01-22T01:44:20.638Z,96308.00
2023-01-22T01:46:54.964Z,96305.59
2023-01-22T01:49:28.576Z,96309.94
2023-01-22T01:52:01.215Z,96295.28
2023-01-22T01:54:29.550Z,96299.25
2023-01-22T01:57:04.380Z,96306.19
2023-01-22T01:59:33.807Z,96306.41
2023-01-22T02:02:03.264Z,96315.09
2023-01-22T02:04:30.488Z,96304.31
2023-01-22T02:06:57.538Z,96319.47
2023-01-22T02:09:25.640Z,96320.91
2023-01-22T02:11:53.990Z,96318.75
2023-01-22T02:14:23.055Z,96323.72
2023-01-22T02:17:01.012Z,96325.50
2023-01-22T02:19:27.955Z,96319.72
2023-01-22T02:21:54.862Z,96326.06
2023-01-22T02:24:21.855Z,96330.56
2023-01-22T02:26:49.084Z,96333.50
2023-01-22T02:29:19.863Z,96335.09
2023-01-22T02:31:47.805Z,96329.78
2023-01-22T02:34:15.008Z,96326.22
2023-01-22T02:36:43.720Z,96320.69
2023-01-22T02:39:10.680Z,96313.75
2023-01-22T02:41:38.420Z,96312.16
2023-01-22T02:44:07.568Z,96318.41
2023-01-22T02:46:35.568Z,96313.69
2023-01-22T02:49:03.080Z,96313.34
2023-01-22T02:51:32.398Z,96318.84
2023-01-22T02:53:59.511Z,96317.06
2023-01-22T02:56:26.480Z,96311.47
2023-01-22T02:58:53.448Z,96307.38
2023-01-22T03:01:23.277Z,96298.81
2023-01-22T03:04:13.068Z,96297.03
2023-01-22T03:06:44.356Z,96296.06
2023-01-22T03:09:14.282Z,96295.88
2023-01-22T03:11:42.641Z,96300.16
2023-01-22T03:14:35.174Z,96287.88
2023-01-22T03:17:21.328Z,96295.09
2023-01-22T03:20:06.819Z,96296.25
2023-01-22T03:22:33.870Z,96286.91
2023-01-22T03:25:01.597Z,96271.78
2023-01-22T03:27:30.708Z,96279.34
2023-01-22T03:29:58.511Z,96282.72
2023-01-22T03:32:26.160Z,96287.06
2023-01-22T03:34:54.013Z,96288.25
2023-01-22T03:37:25.001Z,96280.41
2023-01-22T03:39:54.674Z,96276.50
2023-01-22T03:42:30.168Z,96277.38
2023-01-22T03:44:57.260Z,96282.63
2023-01-22T03:47:25.804Z,96298.75
2023-01-22T03:49:52.712Z,96301.16
2023-01-22T03:52:22.484Z,96306.31
2023-01-22T03:54:49.430Z,96309.69
2023-01-22T03:57:16.371Z,96310.47
2023-01-22T03:59:43.749Z,96311.00
2023-01-22T04:02:10.795Z,96322.28
2023-01-22T04:04:50.662Z,96319.44
2023-01-22T04:07:17.688Z,96322.03
2023-01-22T04:09:44.670Z,96329.75
2023-01-22T04:12:12.707Z,96335.88
2023-01-22T04:14:39.778Z,96336.69
2023-01-22T04:17:08.090Z,96330.41
2023-01-22T04:19:49.984Z,96329.41
2023-01-22T04:22:35.610Z,96332.78
2023-01-22T04:25:03.610Z,96337.41
2023-01-22T04:27:31.695Z,96343.38
2023-01-22T04:29:58.706Z,96335.66
2023-01-22T04:32:25.783Z,96345.25
2023-01-22T04:35:11.412Z,96339.28
2023-01-22T04:37:45.348Z,96346.06
2023-01-22T04:40:13.129Z,96345.69
2023-01-22T04:42:40.908Z,96348.25
2023-01-22T04:45:08.669Z,96344.72
2023-01-22T04:47:40.569Z,96347.28
2023-01-22T04:50:08.370Z,96340.53
2023-01-22T04:52:35.529Z,96343.41
2023-01-22T04:55:02.695Z,96349.69
2023-01-22T04:57:39.528Z,96350.84
2023-01-22T05:00:07.811Z,96348.47
2023-01-22T05:02:35.176Z,96350.03
2023-01-22T05:05:02.248Z,96355.91
2023-01-22T05:07:29.280Z,96348.38
2023-01-22T05:09:56.229Z,96355.66
2023-01-22T05:12:24.093Z,96340.06
2023-01-22T05:14:53.370Z,96344.97
2023-01-22T05:17:21.454Z,96342.03
2023-01-22T05:19:48.752Z,96343.34
2023-01-22T05:22:20.313Z,96348.16
2023-01-22T05:24:49.481Z,96348.16
2023-01-22T05:27:16.455Z,96346.09
2023-01-22T05:29:53.176Z,96343.53
2023-01-22T05:32:46.486Z,96342.56
2023-01-22T05:35:15.355Z,96342.72
2023-01-22T05:37:44.785Z,96349.03
2023-01-22T05:40:13.704Z,96348.41
2023-01-22T05:42:42.585Z,96351.16
2023-01-22T05:45:12.373Z,96351.16
2023-01-22T05:47:54.039Z,96349.22
2023-01-22T05:50:44.115Z,96353.56
2023-01-22T05:53:13.215Z,96356.16
2023-01-22T05:55:40.538Z,96356.81
2023-01-22T05:58:08.537Z,96352.03
2023-01-22T06:00:36.535Z,96355.13
2023-01-22T06:03:06.864Z,96355.75
2023-01-22T06:05:44.098Z,96360.91
2023-01-22T06:08:11.456Z,96360.06
2023-01-22T06:10:48.419Z,96358.16
2023-01-22T06:13:15.535Z,96369.34
2023-01-22T06:15:45.497Z,96372.94
2023-01-22T06:18:33.382Z,96360.78
2023-01-22T06:21:08.059Z,96356.31
2023-01-22T06:23:36.097Z,96367.94
2023-01-22T06:26:05.343Z,96363.59
2023-01-22T06:28:32.907Z,96369.28
2023-01-22T06:31:08.102Z,96366.47
2023-01-22T06:33:38.177Z,96375.75
2023-01-22T06:36:06.536Z,96374.75
2023-01-22T06:38:34.465Z,96378.50
2023-01-22T06:41:06.018Z,96377.41
2023-01-22T06:43:33.985Z,96383.72
2023-01-22T06:46:03.316Z,96381.25
2023-01-22T06:48:50.109Z,96394.13
2023-01-22T06:51:17.551Z,96391.84
2023-01-22T06:53:45.096Z,96399.88
2023-01-22T06:56:12.381Z,96398.75
2023-01-22T06:58:40.540Z,96391.94
2023-01-22T07:01:08.178Z,96393.09
2023-01-22T07:03:35.333Z,96393.56
2023-01-22T07:06:04.261Z,96391.59
2023-01-22T07:08:33.542Z,96401.75
2023-01-22T07:11:00.815Z,96394.47
2023-01-22T07:13:28.115Z,96399.28
2023-01-22T07:15:55.461Z,96403.28
2023-01-22T07:18:24.296Z,96400.53
2023-01-22T07:20:51.620Z,96405.50
2023-01-22T07:23:19.151Z,96406.47
2023-01-22T07:25:46.781Z,96407.75
2023-01-22T07:28:15.381Z,96406.31
2023-01-22T07:30:44.617Z,96408.19
2023-01-22T07:33:12.296Z,96405.78
2023-01-22T07:35:39.857Z,96416.75
2023-01-22T07:38:08.019Z,96408.03
2023-01-22T07:40:35.782Z,96408.66
2023-01-22T07:43:06.975Z,96403.69
2023-01-22T07:45:34.993Z,96407.69
2023-01-22T07:48:02.937Z,96407.97
2023-01-22T07:50:32.139Z,96411.19
2023-01-22T07:53:00.927Z,96411.19
2023-01-22T07:55:28.554Z,96423.94
2023-01-22T07:58:04.256Z,96426.88
2023-01-22T08:00:34.013Z,96419.59
2023-01-22T08:03:02.100Z,96431.69
2023-01-22T08:05:29.297Z,96435.06
2023-01-22T08:07:56.378Z,96438.00
2023-01-22T08:10:23.581Z,96436.94
2023-01-22T08:12:50.944Z,96437.44
2023-01-22T08:15:18.300Z,96439.19
2023-01-22T08:17:50.461Z,96446.50
2023-01-22T08:20:18.283Z,96446.81
2023-01-22T08:22:45.876Z,96460.69
2023-01-22T08:25:13.039Z,96452.34
2023-01-22T08:27:40.273Z,96460.41
2023-01-22T08:30:09.095Z,96462.81
2023-01-22T08:32:36.357Z,96461.06
2023-01-22T08:35:03.737Z,96462.81
2023-01-22T08:37:30.953Z,96472.44
2023-01-22T08:39:58.056Z,96466.75
2023-01-22T08:42:25.254Z,96475.47
2023-01-22T08:44:52.462Z,96475.47
2023-01-22T08:47:19.744Z,96479.91
2023-01-22T08:49:46.936Z,96476.63
2023-01-22T08:52:14.175Z,96485.78
2023-01-22T08:54:41.263Z,96488.66
2023-01-22T08:57:09.137Z,96493.47
2023-01-22T08:59:36.338Z,96497.81
2023-01-22T09:02:04.164Z,96500.41
2023-01-22T09:04:31.307Z,96498.00
2023-01-22T09:06:58.703Z,96506.34
2023-01-22T09:09:25.903Z,96499.91
2023-01-22T09:11:53.138Z,96507.81
2023-01-22T09:14:20.547Z,96513.75
2023-01-22T09:16:47.823Z,96508.28
2023-01-22T09:19:15.098Z,96518.41
2023-01-22T09:21:42.381Z,96529.19
2023-01-22T09:24:09.656Z,96525.81
2023-01-22T09:26:37.336Z,96530.03
2023-01-22T09:29:06.138Z,96526.63
2023-01-22T09:31:35.056Z,96534.34
2023-01-22T09:34:02.547Z,96538.72
2023-01-22T09:36:30.297Z,96535.31
2023-01-22T09:38:57.541Z,96539.50
2023-01-22T09:41:36.536Z,96539.84
2023-01-22T09:44:09.823Z,96533.06
2023-01-22T09:46:58.575Z,96533.88
2023-01-22T09:49:35.138Z,96544.38
2023-01-22T09:52:05.306Z,96542.13
2023-01-22T09:54:33.533Z,96542.47
2023-01-22T09:57:04.982Z,96538.63
2023-01-22T09:59:47.456Z,96539.09
2023-01-22T10:02:34.304Z,96543.97
2023-01-22T10:05:13.656Z,96544.59
2023-01-22T10:07:51.698Z,96536.06
2023-01-22T10:10:23.032Z,96545.53
2023-01-22T10:13:02.775Z,96546.81
2023-01-22T10:15:29.988Z,96542.78
2023-01-22T10:17:58.215Z,96550.16
2023-01-22T10:20:26.196Z,96554.81
2023-01-22T10:22:56.615Z,96549.47
2023-01-22T10:25:23.897Z,96547.81
2023-01-22T10:27:59.938Z,96556.03
2023-01-22T10:30:27.906Z,96556.66
2023-01-22T10:33:07.945Z,96562.91
2023-01-22T10:35:48.136Z,96566.56
2023-01-22T10:38:31.097Z,96567.03
2023-01-22T10:41:00.796Z,96563.13
2023-01-22T10:43:33.826Z,96564.72
2023-01-22T10:46:23.546Z,96565.69
2023-01-22T10:49:05.938Z,96570.97
2023-01-22T10:51:40.024Z,96574.19
2023-01-22T10:54:19.618Z,96569.66
2023-01-22T10:56:47.575Z,96577.03
2023-01-22T10:59:27.738Z,96573.66
2023-01-22T11:02:03.462Z,96572.25
2023-01-22T11:04:33.584Z,96571.28
2023-01-22T11:07:08.145Z,96577.41
2023-01-22T11:09:38.786Z,96572.25
2023-01-22T11:12:16.188Z,96569.94
2023-01-22T11:14:45.735Z,96575.75
2023-01-22T11:17:16.458Z,96569.13
2023-01-22T11:19:53.735Z,96572.69
2023-01-22T11:22:33.746Z,96577.16
2023-01-22T11:25:01.255Z,96581.00
2023-01-22T11:27:37.256Z,96580.47
2023-01-22T11:30:40.307Z,96578.53
2023-01-22T11:33:37.474Z,96584.81
2023-01-22T11:36:27.869Z,96574.00
2023-01-22T11:39:05.902Z,96581.03
2023-01-22T11:41:59.014Z,96582.44
2023-01-22T11:44:28.705Z,96583.88
2023-01-22T11:47:24.945Z,96577.59
2023-01-22T11:49:58.020Z,96588.09
2023-01-22T11:52:34.386Z,96588.19
2023-01-22T11:55:01.696Z,96588.66
2023-01-22T11:57:46.254Z,96588.97
2023-01-22T12:00:33.617Z,96588.28
2023-01-22T12:13:40.255Z,96580.38
2023-01-22T12:16:13.104Z,96582.78
2023-01-22T12:18:58.620Z,96580.69
2023-01-22T12:21:27.628Z,96575.81
2023-01-22T12:24:04.297Z,96574.34
2023-01-22T12:26:34.776Z,96574.41
2023-01-22T12:29:18.936Z,96575.19
2023-01-22T12:32:23.295Z,96577.75
2023-01-22T12:34:59.098Z,96578.41
2023-01-22T12:37:36.098Z,96573.41
2023-01-22T12:40:34.855Z,96569.16
2023-01-22T12:43:05.016Z,96576.19
2023-01-22T12:45:53.219Z,96569.22
2023-01-22T12:48:20.977Z,96576.91
2023-01-22T12:50:56.511Z,96569.88
2023-01-22T12:53:34.518Z,96575.28
2023-01-22T12:56:10.227Z,96573.34
2023-01-22T12:58:40.425Z,96580.13
2023-01-22T13:01:23.575Z,96587.59
2023-01-22T13:04:02.496Z,96584.41
2023-01-22T13:06:39.975Z,96586.69
2023-01-22T13:09:24.591Z,96581.53
2023-01-22T13:11:51.895Z,96594.19
2023-01-22T13:14:29.097Z,96602.91
2023-01-22T13:17:15.815Z,96597.31
2023-01-22T13:19:48.113Z,96599.09
2023-01-22T13:22:19.496Z,96604.88
2023-01-22T13:24:59.879Z,96613.44
2023-01-22T13:27:36.540Z,96608.25
2023-01-22T13:30:17.018Z,96619.78
2023-01-22T13:32:44.414Z,96627.88
2023-01-22T13:35:17.797Z,96618.50
2023-01-22T13:37:51.656Z,96631.59
2023-01-22T13:40:28.057Z,96636.50
2023-01-22T13:42:56.782Z,96637.16
2023-01-22T13:45:30.306Z,96631.34
2023-01-22T13:48:03.678Z,96635.53
2023-01-22T13:50:32.433Z,96637.16
2023-01-22T13:53:02.223Z,96638.94
2023-01-22T13:55:30.987Z,96645.34
2023-01-22T13:58:01.020Z,96636.78
2023-01-22T14:00:35.942Z,96644.19
2023-01-22T14:03:18.782Z,96644.19
2023-01-22T14:05:45.975Z,96651.59
2023-01-22T14:08:14.304Z,96643.84
2023-01-22T14:10:42.374Z,96643.03
2023-01-22T14:13:12.139Z,96656.94
2023-01-22T14:15:40.979Z,96645.97
2023-01-22T14:18:08.775Z,96650.50
2023-01-22T14:20:38.257Z,96653.72
2023-01-22T14:23:05.537Z,96657.66
2023-01-22T14:25:32.777Z,96657.66
2023-01-22T14:28:00.546Z,96671.97
2023-01-22T14:30:28.478Z,96674.94
2023-01-22T14:32:55.663Z,96664.13
2023-01-22T14:35:26.646Z,96672.25
2023-01-22T14:37:54.656Z,96672.75
2023-01-22T14:40:24.295Z,96680.34
2023-01-22T14:42:51.831Z,96694.25
2023-01-22T14:45:20.359Z,96703.59
2023-01-22T14:47:54.095Z,96710.78
2023-01-22T14:50:22.349Z,96711.94
2023-01-22T14:52:51.615Z,96713.13
2023-01-22T14:55:20.296Z,96713.84
2023-01-22T14:57:47.898Z,96719.69
2023-01-22T15:00:18.153Z,96721.00
2023-01-22T15:02:45.619Z,96728.13
2023-01-22T15:05:12.779Z,96735.25
2023-01-22T15:07:39.973Z,96746.41
2023-01-22T15:10:08.794Z,96752.25
2023-01-22T15:12:36.144Z,96755.69
2023-01-22T15:15:03.695Z,96744.44
2023-01-22T15:17:31.336Z,96752.97
2023-01-22T15:19:58.576Z,96756.69
2023-01-22T15:22:25.736Z,96756.88
2023-01-22T15:24:52.896Z,96765.63
2023-01-22T15:27:20.661Z,96758.84
2023-01-22T15:29:56.106Z,96737.84
2023-01-22T15:32:23.263Z,96736.88
2023-01-22T15:34:50.497Z,96734.94
2023-01-22T15:37:17.742Z,96742.16
2023-01-22T15:39:44.999Z,96747.00
2023-01-22T15:42:12.258Z,96757.97
2023-01-22T15:44:39.778Z,96755.69
2023-01-22T15:47:07.377Z,96749.56
2023-01-22T15:49:35.289Z,96745.00
2023-01-22T15:52:02.518Z,96740.66
2023-01-22T15:54:29.901Z,96742.91
2023-01-22T15:56:57.337Z,96740.66
2023-01-22T15:59:24.602Z,96758.91
2023-01-22T16:01:52.823Z,96752.75
2023-01-22T16:04:20.225Z,96759.19
2023-01-22T16:06:47.463Z,96761.78
2023-01-22T16:09:14.697Z,96769.16
2023-01-22T16:11:41.832Z,96759.50
2023-01-22T16:14:09.311Z,96760.00
2023-01-22T16:16:38.609Z,96766.13
2023-01-22T16:19:08.032Z,96775.66
2023-01-22T16:21:36.304Z,96776.63
2023-01-22T16:24:03.539Z,96785.34
2023-01-22T16:26:33.380Z,96796.19
2023-01-22T16:29:02.911Z,96801.66
2023-01-22T16:31:33.218Z,96810.56
2023-01-22T16:34:06.776Z,96818.31
2023-01-22T16:36:34.223Z,96820.91
2023-01-22T16:39:01.560Z,96818.78
2023-01-22T16:41:31.150Z,96818.00
2023-01-22T16:44:02.080Z,96821.56
2023-01-22T16:46:31.561Z,96826.72
2023-01-22T16:49:05.780Z,96826.53
2023-01-22T16:51:39.257Z,96833.66
2023-01-22T16:54:08.266Z,96838.31
2023-01-22T16:56:35.546Z,96832.19
2023-01-22T16:59:02.827Z,96839.13
2023-01-22T17:01:30.500Z,96833.81
2023-01-22T17:03:58.023Z,96840.56
2023-01-22T17:06:28.297Z,96839.41
2023-01-22T17:08:55.780Z,96846.34
2023-01-22T17:11:23.427Z,96848.25
2023-01-22T17:13:50.857Z,96844.84
2023-01-22T17:16:18.815Z,96850.81
2023-01-22T17:18:46.458Z,96857.13
2023-01-22T17:21:16.454Z,96866.28
2023-01-22T17:23:44.151Z,96859.69
2023-01-22T17:26:13.739Z,96861.13
2023-01-22T17:28:41.016Z,96867.25
2023-01-22T17:31:11.747Z,96870.34
2023-01-22T17:33:39.279Z,96876.00
2023-01-22T17:36:07.495Z,96885.53
2023-01-22T17:38:38.388Z,96895.66
2023-01-22T17:41:20.944Z,96896.97
2023-01-22T17:43:52.421Z,96904.06
2023-01-22T17:46:23.318Z,96912.81
2023-01-22T17:48:52.380Z,96910.88
2023-01-22T17:51:25.753Z,96913.47
2023-01-22T17:53:55.096Z,96914.78
2023-01-22T17:56:24.512Z,96921.34
2023-01-22T17:58:54.415Z,96921.88
2023-01-22T18:01:28.188Z,96921.88
2023-01-22T18:04:00.624Z,96930.88
2023-01-22T18:06:28.174Z,96935.44
2023-01-22T18:08:55.743Z,96933.16
2023-01-22T18:11:28.235Z,96932.19
2023-01-22T18:13:57.544Z,96926.88
2023-01-22T18:16:26.743Z,96918.16
2023-01-22T18:18:54.856Z,96917.97
2023-01-22T18:21:23.501Z,96913.81
2023-01-22T18:23:50.937Z,96920.41
2023-01-22T18:26:27.015Z,96918.63
2023-01-22T18:28:58.007Z,96928.63
2023-01-22T18:31:27.757Z,96921.03
2023-01-22T18:33:58.155Z,96923.63
2023-01-22T18:36:28.299Z,96932.63
2023-01-22T18:39:03.222Z,96934.09
2023-01-22T18:41:31.136Z,96938.47
2023-01-22T18:44:01.733Z,96937.84
2023-01-22T18:46:31.531Z,96939.28
2023-01-22T18:49:01.623Z,96938.31
2023-01-22T18:51:30.059Z,96931.53
2023-01-22T18:53:58.274Z,96951.22
2023-01-22T18:56:28.216Z,96960.91
2023-01-22T18:58:57.066Z,96962.66
2023-01-22T19:01:25.543Z,96958.50
2023-01-22T19:03:55.937Z,96953.50
2023-01-22T19:06:26.105Z,96948.34
2023-01-22T19:09:03.920Z,96941.41
2023-01-22T19:11:34.026Z,96939.63
2023-01-22T19:14:03.310Z,96938.16
2023-01-22T19:16:32.017Z,96948.16
2023-01-22T19:19:11.438Z,96962.84
2023-01-22T19:21:47.425Z,96973.34
2023-01-22T19:24:17.692Z,96981.09
2023-01-22T19:26:46.820Z,96983.81
2023-01-22T19:29:17.709Z,96980.44
2023-01-22T19:31:51.925Z,96972.03
2023-01-22T19:34:24.632Z,96973.19
2023-01-22T19:36:54.588Z,96973.03
2023-01-22T19:39:22.856Z,96976.72
2023-01-22T19:41:49.936Z,96966.25
2023-01-22T19:44:17.860Z,96952.03
2023-01-22T19:46:45.095Z,96958.00
2023-01-22T19:49:13.743Z,96951.88
2023-01-22T19:51:40.936Z,96950.44
2023-01-22T19:54:09.137Z,96946.06
2023-01-22T19:56:37.979Z,96948.34
2023-01-22T19:59:11.496Z,96944.63
2023-01-22T20:01:39.520Z,96939.63
2023-01-22T20:04:14.216Z,96953.81
2023-01-22T20:06:41.502Z,96951.88
2023-01-22T20:09:08.804Z,96941.56
2023-01-22T20:11:36.057Z,96958.66
2023-01-22T20:14:03.145Z,96953.34
2023-01-22T20:16:30.688Z,96959.78
2023-01-22T20:18:59.056Z,96952.84
2023-01-22T20:21:27.341Z,96954.63
2023-01-22T20:23:54.830Z,96960.44
2023-01-22T20:26:22.845Z,96957.22
2023-01-22T20:28:50.696Z,96947.88
2023-01-22T20:31:23.403Z,96955.94
2023-01-22T20:33:57.338Z,96958.69
2023-01-22T20:36:28.015Z,96960.13
2023-01-22T20:38:55.461Z,96972.06
2023-01-22T20:41:26.576Z,96963.03
2023-01-22T20:43:54.785Z,96978.50
2023-01-22T20:46:23.342Z,96972.88
2023-01-22T20:48:51.698Z,96976.09
2023-01-22T20:51:21.555Z,96984.31
2023-01-22T20:53:50.850Z,96992.41
2023-01-22T20:56:23.854Z,96993.66
2023-01-22T20:58:59.936Z,97005.75
2023-01-22T21:01:28.102Z,97008.31
2023-01-22T21:03:56.894Z,97013.50
2023-01-22T21:06:25.097Z,97022.38
2023-01-22T21:08:53.856Z,97023.19
2023-01-22T21:11:22.136Z,97024.13
2023-01-22T21:13:50.185Z,97026.22
2023-01-22T21:16:19.815Z,97029.28
2023-01-22T21:18:47.018Z,97028.13
2023-01-22T21:21:20.299Z,97029.91
2023-01-22T21:23:49.865Z,97038.63
2023-01-22T21:26:19.615Z,97033.13
2023-01-22T21:28:48.563Z,97042.50
2023-01-22T21:31:19.136Z,97045.06
2023-01-22T21:33:47.022Z,97053.44
2023-01-22T21:36:16.661Z,97056.03
2023-01-22T21:38:48.538Z,97065.06
2023-01-22T21:41:18.114Z,97069.41
2023-01-22T21:44:05.462Z,97065.72
2023-01-22T21:46:36.780Z,97059.59
2023-01-22T21:49:18.163Z,97061.38
2023-01-22T21:51:51.344Z,97062.16
2023-01-22T21:54:30.384Z,97071.19
2023-01-22T21:56:57.619Z,97066.69
2023-01-22T21:59:25.218Z,97059.75
2023-01-22T22:01:54.856Z,97055.56
2023-01-22T22:04:24.519Z,97046.72
2023-01-22T22:06:52.536Z,97044.13
2023-01-22T22:09:23.030Z,97048.97
2023-01-22T22:11:50.426Z,97050.72
2023-01-22T22:14:22.535Z,97061.56
2023-01-22T22:16:49.920Z,97071.72
2023-01-22T22:19:18.417Z,97064.94
2023-01-22T22:21:46.022Z,97061.69
2023-01-22T22:24:13.984Z,97068.47
2023-01-22T22:26:41.242Z,97068.00
2023-01-22T22:29:09.504Z,97072.50
2023-01-22T22:31:37.238Z,97059.63
2023-01-22T22:34:05.458Z,97059.63
2023-01-22T22:36:33.460Z,97055.41
2023-01-22T22:39:02.092Z,97056.88
2023-01-22T22:41:32.953Z,97055.25
2023-01-22T22:44:00.722Z,97053.50
2023-01-22T22:46:30.662Z,97060.28
2023-01-22T22:49:00.498Z,97053.31
2023-01-22T22:51:31.765Z,97048.97
2023-01-22T22:54:02.035Z,97040.41
2023-01-22T22:56:29.878Z,97056.69
2023-01-22T22:58:59.632Z,97044.78
2023-01-22T23:01:28.340Z,97052.53
2023-01-22T23:03:55.745Z,97055.41
2023-01-22T23:06:27.037Z,97060.56
2023-01-22T23:09:09.295Z,97054.59
2023-01-22T23:11:36.865Z,97053.47
2023-01-22T23:14:04.672Z,97044.59
2023-01-22T23:16:37.936Z,97048.47
2023-01-22T23:19:08.057Z,97051.84
2023-01-22T23:21:36.637Z,97048.94
2023-01-22T23:24:04.588Z,97043.78
2023-01-22T23:26:32.829Z,97051.53
2023-01-22T23:29:02.344Z,97055.06
2023-01-22T23:31:32.669Z,97047.63
2023-01-22T23:34:01.541Z,97046.50
2023-01-22T23:36:28.778Z,97051.31
2023-01-22T23:38:56.257Z,97061.13
2023-01-22T23:41:24.419Z,97058.56
2023-01-22T23:43:51.666Z,97059.50
2023-01-22T23:46:25.800Z,97060.00
2023-01-22T23:48:54.982Z,97067.22
2023-01-22T23:51:22.391Z,97061.44
2023-01-22T23:53:52.056Z,97063.66
2023-01-22T23:56:27.903Z,97058.50
2023-01-22T23:58:56.600Z,97069.28
